La rose des vents
Donnes mto: Semaine 28/05/07 - 03/06/07 (S 22)
Date Horaire Temp. E. Hum. E. P.atmo. Pluie Vent 1mn Direction Ensoleilleme Ev.Tr. Solaire P. de rose Temp au vent Rafales
28/05/2007 00:00 15,9 C 66 % 996,5 hPa 0,0 l/m 23,1 km/h (4 Bft) O-SO 0,00 h 0,127 mm 0 W/m 9,5 C 15,9 C 31,0 km/h (5 Bft)
28/05/2007 01:00 15,7 C 67 % 995,9 hPa 0,0 l/m 9,4 km/h (2 Bft) O-SO 0,00 h 0,102 mm 0 W/m 9,5 C 15,7 C 14,2 km/h (3 Bft)
28/05/2007 02:00 15,2 C 70 % 995,2 hPa 0,0 l/m 9,7 km/h (2 Bft) O-NO 0,00 h 0,051 mm 0 W/m 9,8 C 15,2 C 14,5 km/h (3 Bft)
28/05/2007 03:00 15,0 C 70 % 994,9 hPa 0,0 l/m 12,7 km/h (3 Bft) O-SO 0,00 h 0,051 mm 0 W/m 9,6 C 15,0 C 17,7 km/h (3 Bft)
28/05/2007 04:00 13,5 C 71 % 994,4 hPa 0,2 l/m 14,6 km/h (3 Bft) O-SO 0,00 h 0,076 mm 0 W/m 8,3 C 13,5 C 20,5 km/h (4 Bft)
28/05/2007 05:00 12,6 C 78 % 993,5 hPa 0,0 l/m 7,7 km/h (2 Bft) NO 0,00 h 0,076 mm 0 W/m 8,8 C 12,6 C 11,3 km/h (2 Bft)
28/05/2007 06:00 13,9 C 60 % 993,2 hPa 0,0 l/m 7,9 km/h (2 Bft) NO 0,00 h 0,025 mm 17 W/m 6,1 C 13,9 C 13,2 km/h (3 Bft)
28/05/2007 07:00 13,3 C 59 % 992,7 hPa 0,0 l/m 14,8 km/h (3 Bft) O-SO 0,00 h 0,051 mm 57 W/m 5,5 C 13,3 C 20,5 km/h (4 Bft)
28/05/2007 08:00 14,4 C 53 % 992,4 hPa 0,0 l/m 10,5 km/h (2 Bft) O-SO 0,75 h 0,102 mm 307 W/m 5,0 C 14,4 C 15,8 km/h (3 Bft)
28/05/2007 09:00 17,2 C 36 % 991,7 hPa 0,0 l/m 27,6 km/h (4 Bft) O-SO 1,00 h 0,229 mm 545 W/m 2,0 C 17,2 C 38,3 km/h (5 Bft)
28/05/2007 10:00 18,0 C 33 % 991,8 hPa 0,0 l/m 30,7 km/h (5 Bft) O-SO 1,00 h 0,533 mm 695 W/m 1,5 C 18,0 C 43,1 km/h (6 Bft)
28/05/2007 11:00 18,7 C 33 % 992,0 hPa 0,0 l/m 31,3 km/h (5 Bft) O-SO 1,00 h 0,660 mm 815 W/m 1,9 C 18,7 C 45,9 km/h (6 Bft)
28/05/2007 12:00 19,1 C 31 % 991,7 hPa 0,0 l/m 33,6 km/h (5 Bft) O-SO 1,00 h 0,737 mm 889 W/m 1,8 C 19,1 C 48,4 km/h (6 Bft)
28/05/2007 13:00 19,6 C 33 % 991,8 hPa 0,0 l/m 35,6 km/h (5 Bft) O-SO 1,00 h 0,813 mm 911 W/m 3,1 C 19,6 C 49,7 km/h (6 Bft)
28/05/2007 14:00 20,3 C 32 % 991,9 hPa 0,0 l/m 30,4 km/h (5 Bft) O-SO 1,00 h 0,838 mm 879 W/m 3,1 C 20,3 C 43,9 km/h (6 Bft)
28/05/2007 15:00 19,9 C 37 % 991,7 hPa 0,0 l/m 32,0 km/h (5 Bft) O-SO 1,00 h 0,787 mm 808 W/m 4,8 C 19,9 C 44,7 km/h (6 Bft)
28/05/2007 16:00 20,0 C 35 % 991,7 hPa 0,0 l/m 31,4 km/h (5 Bft) O-SO 1,00 h 0,737 mm 686 W/m 4,2 C 20,0 C 43,6 km/h (6 Bft)
28/05/2007 17:00 19,8 C 34 % 991,8 hPa 0,0 l/m 33,8 km/h (5 Bft) O-SO 1,00 h 0,686 mm 533 W/m 3,4 C 19,8 C 47,0 km/h (6 Bft)
28/05/2007 18:00 19,3 C 35 % 991,5 hPa 0,0 l/m 33,0 km/h (5 Bft) O-SO 1,00 h 0,610 mm 366 W/m 3,5 C 19,3 C 46,8 km/h (6 Bft)
28/05/2007 19:00 18,7 C 33 % 991,7 hPa 0,0 l/m 32,7 km/h (5 Bft) O 0,93 h 0,508 mm 194 W/m 2,2 C 18,7 C 45,5 km/h (6 Bft)
28/05/2007 20:00 17,6 C 34 % 991,8 hPa 0,0 l/m 27,6 km/h (4 Bft) O-NO 0,20 h 0,406 mm 31 W/m 1,6 C 17,6 C 40,1 km/h (6 Bft)
28/05/2007 21:00 16,2 C 38 % 992,7 hPa 0,0 l/m 19,0 km/h (3 Bft) O 0,00 h 0,254 mm 6 W/m 2,0 C 16,2 C 29,9 km/h (5 Bft)
28/05/2007 22:00 15,7 C 40 % 993,7 hPa 0,0 l/m 18,6 km/h (3 Bft) O-NO 0,00 h 0,152 mm 0 W/m 2,1 C 15,7 C 29,2 km/h (5 Bft)
28/05/2007 23:00 15,6 C 39 % 993,6 hPa 0,0 l/m 21,6 km/h (4 Bft) O 0,00 h 0,152 mm 0 W/m 1,7 C 15,6 C 32,7 km/h (5 Bft)
29/05/2007 00:00 15,4 C 38 % 993,7 hPa 0,0 l/m 16,9 km/h (3 Bft) O-NO 0,00 h 0,178 mm 0 W/m 1,1 C 15,4 C 26,9 km/h (4 Bft)
29/05/2007 01:00 15,4 C 36 % 993,7 hPa 0,0 l/m 7,7 km/h (2 Bft) E 0,00 h 0,152 mm 0 W/m 0,6 C 15,4 C 12,1 km/h (2 Bft)
29/05/2007 02:00 15,5 C 35 % 993,3 hPa 0,0 l/m 10,2 km/h (2 Bft) O 0,00 h 0,102 mm 0 W/m 0,3 C 15,5 C 15,5 km/h (3 Bft)
29/05/2007 03:00 14,7 C 39 % 993,4 hPa 0,0 l/m 7,7 km/h (2 Bft) S-SE 0,00 h 0,102 mm 0 W/m 0,9 C 14,7 C 11,4 km/h (2 Bft)
29/05/2007 04:00 13,9 C 41 % 993,7 hPa 0,0 l/m 4,1 km/h (1 Bft) SE 0,00 h 0,102 mm 0 W/m 0,9 C 13,9 C 6,7 km/h (2 Bft)
29/05/2007 05:00 13,5 C 45 % 994,2 hPa 0,0 l/m 1,0 km/h (0 Bft) S-SO 0,00 h 0,076 mm 5 W/m 1,8 C 13,5 C 2,4 km/h (1 Bft)
29/05/2007 06:00 12,8 C 52 % 994,8 hPa 0,0 l/m 1,7 km/h (1 Bft) S-SO 0,03 h 0,025 mm 32 W/m 3,3 C 12,8 C 3,1 km/h (1 Bft)
29/05/2007 07:00 14,5 C 46 % 995,7 hPa 0,0 l/m 0,9 km/h (0 Bft) NE 0,28 h 0,025 mm 117 W/m 3,0 C 14,5 C 1,9 km/h (1 Bft)
29/05/2007 08:00 16,9 C 41 % 996,5 hPa 0,0 l/m 3,4 km/h (1 Bft) E 0,97 h 0,076 mm 346 W/m 3,5 C 16,9 C 5,5 km/h (1 Bft)
29/05/2007 09:00 18,5 C 36 % 997,0 hPa 0,0 l/m 4,6 km/h (1 Bft) S 1,00 h 0,229 mm 543 W/m 3,0 C 18,5 C 7,6 km/h (2 Bft)
29/05/2007 10:00 19,7 C 33 % 997,5 hPa 0,0 l/m 7,3 km/h (2 Bft) S 1,00 h 0,356 mm 692 W/m 2,9 C 19,7 C 11,7 km/h (2 Bft)
29/05/2007 11:00 21,6 C 31 % 998,3 hPa 0,0 l/m 11,6 km/h (2 Bft) E 1,00 h 0,483 mm 810 W/m 3,7 C 21,6 C 16,8 km/h (3 Bft)
29/05/2007 12:00 20,9 C 31 % 999,2 hPa 0,0 l/m 11,1 km/h (2 Bft) E 1,00 h 0,610 mm 881 W/m 3,1 C 20,9 C 16,9 km/h (3 Bft)
29/05/2007 13:00 21,6 C 32 % 999,9 hPa 0,0 l/m 10,0 km/h (2 Bft) E 1,00 h 0,635 mm 910 W/m 4,4 C 21,6 C 15,8 km/h (3 Bft)
29/05/2007 14:00 22,0 C 30 % 1000,5 hPa 0,0 l/m 9,6 km/h (2 Bft) E 1,00 h 0,635 mm 891 W/m 3,8 C 22,0 C 15,3 km/h (3 Bft)
29/05/2007 15:00 21,8 C 31 % 1001,4 hPa 0,0 l/m 8,3 km/h (2 Bft) E 0,63 h 0,635 mm 687 W/m 3,8 C 21,8 C 13,7 km/h (3 Bft)
29/05/2007 16:00 21,1 C 35 % 1002,1 hPa 0,0 l/m 9,5 km/h (2 Bft) E 0,38 h 0,483 mm 443 W/m 5,1 C 21,1 C 14,0 km/h (3 Bft)
29/05/2007 17:00 21,7 C 42 % 1002,8 hPa 0,0 l/m 4,9 km/h (1 Bft) E 0,97 h 0,406 mm 562 W/m 8,2 C 21,7 C 10,1 km/h (2 Bft)
29/05/2007 18:00 20,0 C 46 % 1003,5 hPa 0,0 l/m 3,9 km/h (1 Bft) S-SE 1,00 h 0,381 mm 358 W/m 8,1 C 20,0 C 7,8 km/h (2 Bft)
29/05/2007 19:00 18,7 C 56 % 1004,1 hPa 0,0 l/m 2,1 km/h (1 Bft) SE 0,92 h 0,254 mm 182 W/m 9,7 C 18,7 C 4,6 km/h (1 Bft)
29/05/2007 20:00 16,4 C 65 % 1004,7 hPa 0,0 l/m 0,5 km/h (0 Bft) SE 0,03 h 0,127 mm 23 W/m 9,8 C 16,4 C 2,0 km/h (1 Bft)
29/05/2007 21:00 15,0 C 69 % 1005,3 hPa 0,0 l/m 0,0 km/h (0 Bft) N 0,00 h 0,025 mm 5 W/m 9,4 C 15,0 C 0,2 km/h (0 Bft)
29/05/2007 22:00 14,0 C 73 % 1006,1 hPa 0,0 l/m 0,8 km/h (0 Bft) SE 0,00 h 0,000 mm 0 W/m 9,3 C 14,0 C 2,6 km/h (1 Bft)
29/05/2007 23:00 13,3 C 69 % 1006,5 hPa 0,0 l/m 3,3 km/h (1 Bft) O-SO 0,00 h 0,025 mm 0 W/m 7,7 C 13,3 C 5,2 km/h (1 Bft)
30/05/2007 00:00 13,5 C 62 % 1006,7 hPa 0,0 l/m 3,0 km/h (1 Bft) O 0,00 h 0,025 mm 0 W/m 6,2 C 13,5 C 4,2 km/h (1 Bft)
30/05/2007 01:00 13,4 C 57 % 1006,8 hPa 0,0 l/m 2,2 km/h (1 Bft) O-NO 0,00 h 0,051 mm 0 W/m 5,0 C 13,4 C 3,3 km/h (1 Bft)
30/05/2007 02:00 11,9 C 60 % 1007,1 hPa 0,0 l/m 0,3 km/h (0 Bft) O-NO 0,00 h 0,051 mm 0 W/m 4,4 C 11,9 C 0,7 km/h (0 Bft)
30/05/2007 03:00 11,7 C 60 % 1007,1 hPa 0,0 l/m 1,8 km/h (1 Bft) O-NO 0,00 h 0,025 mm 0 W/m 4,2 C 11,7 C 2,7 km/h (1 Bft)
30/05/2007 04:00 11,8 C 57 % 1007,1 hPa 0,0 l/m 3,9 km/h (1 Bft) O-NO 0,00 h 0,025 mm 0 W/m 3,7 C 11,8 C 6,3 km/h (2 Bft)
30/05/2007 05:00 11,5 C 57 % 1007,3 hPa 0,0 l/m 4,3 km/h (1 Bft) NO 0,00 h 0,051 mm 6 W/m 3,4 C 11,5 C 6,8 km/h (2 Bft)
30/05/2007 06:00 12,0 C 56 % 1007,6 hPa 0,0 l/m 4,9 km/h (1 Bft) NO 0,03 h 0,025 mm 20 W/m 3,3 C 12,0 C 8,2 km/h (2 Bft)
30/05/2007 07:00 14,2 C 51 % 1008,0 hPa 0,0 l/m 1,3 km/h (1 Bft) NO 0,48 h 0,051 mm 134 W/m 4,4 C 14,2 C 3,0 km/h (1 Bft)
30/05/2007 08:00 18,0 C 44 % 1008,3 hPa 0,0 l/m 1,1 km/h (1 Bft) N 1,00 h 0,076 mm 369 W/m 5,4 C 18,0 C 2,3 km/h (1 Bft)
30/05/2007 09:00 20,7 C 36 % 1008,5 hPa 0,0 l/m 5,7 km/h (1 Bft) NE 1,00 h 0,229 mm 542 W/m 4,9 C 20,7 C 9,1 km/h (2 Bft)
30/05/2007 10:00 21,6 C 34 % 1008,8 hPa 0,0 l/m 10,5 km/h (2 Bft) E 1,00 h 0,381 mm 690 W/m 4,9 C 21,6 C 15,8 km/h (3 Bft)
30/05/2007 11:00 21,1 C 43 % 1009,3 hPa 0,0 l/m 10,2 km/h (2 Bft) E 1,00 h 0,508 mm 806 W/m 7,9 C 21,1 C 15,8 km/h (3 Bft)
30/05/2007 12:00 21,4 C 51 % 1009,8 hPa 0,0 l/m 10,5 km/h (2 Bft) E 1,00 h 0,559 mm 895 W/m 11,0 C 21,4 C 17,0 km/h (3 Bft)
30/05/2007 13:00 21,6 C 50 % 1010,4 hPa 0,0 l/m 8,4 km/h (2 Bft) E 1,00 h 0,610 mm 917 W/m 10,8 C 21,6 C 14,4 km/h (3 Bft)
30/05/2007 14:00 22,0 C 46 % 1010,7 hPa 0,0 l/m 6,6 km/h (2 Bft) E 1,00 h 0,610 mm 877 W/m 9,9 C 22,0 C 12,3 km/h (3 Bft)
30/05/2007 15:00 22,0 C 39 % 1011,0 hPa 0,0 l/m 8,5 km/h (2 Bft) E 1,00 h 0,584 mm 794 W/m 7,6 C 22,0 C 14,0 km/h (3 Bft)
30/05/2007 16:00 21,4 C 43 % 1011,2 hPa 0,0 l/m 7,8 km/h (2 Bft) E-SE 1,00 h 0,559 mm 651 W/m 8,2 C 21,4 C 13,0 km/h (3 Bft)
30/05/2007 17:00 20,9 C 45 % 1011,1 hPa 0,0 l/m 6,2 km/h (2 Bft) E-SE 0,92 h 0,457 mm 480 W/m 8,4 C 20,9 C 9,6 km/h (2 Bft)
30/05/2007 18:00 20,5 C 44 % 1011,0 hPa 0,0 l/m 4,0 km/h (1 Bft) E-SE 0,88 h 0,330 mm 317 W/m 7,9 C 20,5 C 6,7 km/h (2 Bft)
30/05/2007 19:00 19,1 C 56 % 1010,9 hPa 0,0 l/m 3,7 km/h (1 Bft) E 0,88 h 0,229 mm 184 W/m 10,1 C 19,1 C 6,1 km/h (2 Bft)
30/05/2007 20:00 17,4 C 62 % 1011,2 hPa 0,0 l/m 0,9 km/h (0 Bft) E 0,10 h 0,127 mm 35 W/m 9,9 C 17,4 C 2,3 km/h (1 Bft)
30/05/2007 21:00 15,6 C 71 % 1011,6 hPa 0,0 l/m 0,5 km/h (0 Bft) E 0,00 h 0,025 mm 5 W/m 10,3 C 15,6 C 0,9 km/h (0 Bft)
30/05/2007 22:00 14,7 C 75 % 1012,3 hPa 0,0 l/m 1,3 km/h (1 Bft) E 0,00 h 0,000 mm 0 W/m 10,3 C 14,7 C 1,9 km/h (1 Bft)
30/05/2007 23:00 13,9 C 76 % 1012,6 hPa 0,0 l/m 0,1 km/h (0 Bft) E 0,00 h 0,025 mm 0 W/m 9,8 C 13,9 C 0,4 km/h (0 Bft)
31/05/2007 00:00 13,8 C 75 % 1012,8 hPa 0,0 l/m 2,1 km/h (1 Bft) E 0,00 h 0,025 mm 0 W/m 9,4 C 13,8 C 3,3 km/h (1 Bft)
31/05/2007 01:00 13,5 C 73 % 1012,5 hPa 0,0 l/m 2,3 km/h (1 Bft) NE 0,00 h 0,025 mm 0 W/m 8,8 C 13,5 C 3,9 km/h (1 Bft)
31/05/2007 02:00 13,6 C 75 % 1012,1 hPa 0,0 l/m 0,1 km/h (0 Bft) N 0,00 h 0,025 mm 0 W/m 9,2 C 13,6 C 0,7 km/h (0 Bft)
31/05/2007 03:00 13,5 C 75 % 1011,7 hPa 0,0 l/m 0,2 km/h (0 Bft) N 0,00 h 0,025 mm 0 W/m 9,2 C 13,5 C 0,7 km/h (0 Bft)
31/05/2007 04:00 13,7 C 75 % 1011,6 hPa 0,0 l/m 1,8 km/h (1 Bft) N 0,00 h 0,025 mm 0 W/m 9,4 C 13,7 C 3,1 km/h (1 Bft)
31/05/2007 05:00 13,4 C 76 % 1011,8 hPa 0,0 l/m 0,2 km/h (0 Bft) N-NO 0,00 h 0,025 mm 0 W/m 9,2 C 13,4 C 1,1 km/h (1 Bft)
31/05/2007 06:00 13,7 C 77 % 1011,9 hPa 0,0 l/m 0,4 km/h (0 Bft) N 0,00 h 0,000 mm 18 W/m 9,7 C 13,7 C 2,0 km/h (1 Bft)
31/05/2007 07:00 14,6 C 79 % 1012,5 hPa 0,0 l/m 2,9 km/h (1 Bft) N-NE 0,00 h 0,025 mm 35 W/m 11,1 C 14,6 C 5,3 km/h (1 Bft)
31/05/2007 08:00 15,2 C 80 % 1012,6 hPa 0,0 l/m 2,8 km/h (1 Bft) NE 0,00 h 0,025 mm 70 W/m 11,7 C 15,2 C 4,8 km/h (1 Bft)
31/05/2007 09:00 16,8 C 76 % 1013,2 hPa 0,0 l/m 4,8 km/h (1 Bft) NE 0,07 h 0,051 mm 223 W/m 12,4 C 16,8 C 7,2 km/h (2 Bft)
31/05/2007 10:00 18,8 C 67 % 1013,3 hPa 0,0 l/m 7,9 km/h (2 Bft) E 0,45 h 0,152 mm 374 W/m 12,6 C 18,8 C 12,5 km/h (3 Bft)
31/05/2007 11:00 17,8 C 67 % 1013,9 hPa 0,0 l/m 6,5 km/h (2 Bft) E-NE 0,00 h 0,254 mm 238 W/m 11,6 C 17,8 C 9,8 km/h (2 Bft)
31/05/2007 12:00 17,9 C 71 % 1014,1 hPa 0,0 l/m 6,0 km/h (2 Bft) E-NE 0,00 h 0,178 mm 234 W/m 12,6 C 17,9 C 8,5 km/h (2 Bft)
31/05/2007 13:00 16,6 C 84 % 1014,1 hPa 0,6 l/m 4,8 km/h (1 Bft) E 0,00 h 0,152 mm 127 W/m 13,9 C 16,6 C 7,7 km/h (2 Bft)
31/05/2007 14:00 15,9 C 92 % 1013,7 hPa 0,8 l/m 2,6 km/h (1 Bft) E-NE 0,00 h 0,076 mm 112 W/m 14,7 C 15,9 C 4,9 km/h (1 Bft)
31/05/2007 15:00 15,2 C 94 % 1013,6 hPa 1,8 l/m 2,7 km/h (1 Bft) NE 0,00 h 0,076 mm 49 W/m 14,1 C 15,2 C 4,3 km/h (1 Bft)
31/05/2007 16:00 14,9 C 95 % 1013,5 hPa 0,8 l/m 1,9 km/h (1 Bft) NE 0,00 h 0,025 mm 70 W/m 14,1 C 14,9 C 4,0 km/h (1 Bft)
31/05/2007 17:00 14,9 C 95 % 1013,2 hPa 0,0 l/m 2,9 km/h (1 Bft) NE 0,00 h 0,051 mm 107 W/m 14,2 C 14,9 C 5,2 km/h (1 Bft)
31/05/2007 18:00 15,1 C 96 % 1012,4 hPa 0,0 l/m 5,2 km/h (1 Bft) N-NE 0,00 h 0,051 mm 78 W/m 14,5 C 15,1 C 8,3 km/h (2 Bft)
31/05/2007 19:00 14,8 C 96 % 1012,1 hPa 0,0 l/m 3,9 km/h (1 Bft) E-NE 0,00 h 0,051 mm 22 W/m 14,1 C 14,8 C 6,0 km/h (2 Bft)
31/05/2007 20:00 14,5 C 96 % 1012,1 hPa 0,0 l/m 6,2 km/h (2 Bft) NE 0,00 h 0,025 mm 7 W/m 13,8 C 14,5 C 9,1 km/h (2 Bft)
31/05/2007 21:00 14,2 C 96 % 1012,0 hPa 0,0 l/m 5,9 km/h (2 Bft) NE 0,00 h 0,000 mm 0 W/m 13,6 C 14,2 C 8,9 km/h (2 Bft)
31/05/2007 22:00 14,1 C 95 % 1012,2 hPa 0,0 l/m 5,8 km/h (2 Bft) NE 0,00 h 0,000 mm 0 W/m 13,3 C 14,1 C 8,6 km/h (2 Bft)
31/05/2007 23:00 13,9 C 95 % 1011,4 hPa 0,0 l/m 4,1 km/h (1 Bft) N 0,00 h 0,025 mm 0 W/m 13,1 C 13,9 C 7,3 km/h (2 Bft)
01/06/2007 00:00 13,8 C 94 % 1010,5 hPa 1,4 l/m 4,4 km/h (1 Bft) N-NE 0,00 h 0,000 mm 0 W/m 12,9 C 13,8 C 7,5 km/h (2 Bft)
01/06/2007 01:00 13,7 C 94 % 1010,8 hPa 4,8 l/m 9,4 km/h (2 Bft) NO 0,00 h 0,025 mm 0 W/m 12,7 C 13,7 C 13,2 km/h (3 Bft)
01/06/2007 02:00 13,5 C 95 % 1010,0 hPa 0,0 l/m 2,5 km/h (1 Bft) N-NO 0,00 h 0,025 mm 0 W/m 12,7 C 13,5 C 4,6 km/h (1 Bft)
01/06/2007 03:00 13,3 C 95 % 1008,8 hPa 0,0 l/m 2,1 km/h (1 Bft) O-NO 0,00 h 0,000 mm 0 W/m 12,5 C 13,3 C 3,7 km/h (1 Bft)
01/06/2007 04:00 12,6 C 95 % 1008,1 hPa 0,0 l/m 8,9 km/h (2 Bft) O-SO 0,00 h 0,000 mm 0 W/m 11,7 C 12,6 C 11,9 km/h (2 Bft)
01/06/2007 05:00 12,0 C 93 % 1008,5 hPa 0,0 l/m 6,1 km/h (2 Bft) O 0,00 h 0,025 mm 6 W/m 11,0 C 12,0 C 9,6 km/h (2 Bft)
01/06/2007 06:00 11,9 C 94 % 1008,9 hPa 0,0 l/m 3,7 km/h (1 Bft) E-NE 0,05 h 0,000 mm 38 W/m 10,9 C 11,9 C 5,1 km/h (1 Bft)
01/06/2007 07:00 12,5 C 94 % 1008,7 hPa 0,0 l/m 1,8 km/h (1 Bft) SO 0,20 h 0,025 mm 126 W/m 11,5 C 12,5 C 3,1 km/h (1 Bft)
01/06/2007 08:00 14,0 C 90 % 1008,8 hPa 0,0 l/m 10,2 km/h (2 Bft) SO 0,72 h 0,076 mm 305 W/m 12,3 C 14,0 C 14,1 km/h (3 Bft)
01/06/2007 09:00 17,0 C 73 % 1008,7 hPa 0,0 l/m 9,7 km/h (2 Bft) O-SO 1,00 h 0,178 mm 532 W/m 12,2 C 17,0 C 13,5 km/h (3 Bft)
01/06/2007 10:00 19,8 C 64 % 1008,7 hPa 0,0 l/m 8,9 km/h (2 Bft) E 0,98 h 0,330 mm 750 W/m 12,8 C 19,8 C 13,6 km/h (3 Bft)
01/06/2007 11:00 19,9 C 59 % 1009,1 hPa 0,0 l/m 10,2 km/h (2 Bft) E-NE 0,68 h 0,457 mm 590 W/m 11,6 C 19,9 C 14,6 km/h (3 Bft)
01/06/2007 12:00 21,5 C 56 % 1009,1 hPa 0,0 l/m 12,9 km/h (3 Bft) E-NE 1,00 h 0,432 mm 872 W/m 12,4 C 21,5 C 18,9 km/h (3 Bft)
01/06/2007 13:00 21,6 C 58 % 1008,9 hPa 0,0 l/m 15,2 km/h (3 Bft) E-NE 1,00 h 0,610 mm 907 W/m 13,0 C 21,6 C 21,1 km/h (4 Bft)
01/06/2007 14:00 22,2 C 55 % 1008,5 hPa 0,0 l/m 17,6 km/h (3 Bft) E-NE 1,00 h 0,635 mm 879 W/m 12,8 C 22,2 C 23,8 km/h (4 Bft)
01/06/2007 15:00 21,7 C 56 % 1008,3 hPa 0,0 l/m 22,0 km/h (4 Bft) E-NE 1,00 h 0,660 mm 810 W/m 12,7 C 21,7 C 29,7 km/h (5 Bft)
01/06/2007 16:00 21,6 C 56 % 1008,6 hPa 0,0 l/m 21,4 km/h (4 Bft) E-NE 0,90 h 0,610 mm 679 W/m 12,3 C 21,6 C 28,9 km/h (5 Bft)
01/06/2007 17:00 19,5 C 62 % 1008,8 hPa 0,0 l/m 15,3 km/h (3 Bft) E-NE 0,22 h 0,533 mm 220 W/m 11,9 C 19,5 C 21,5 km/h (4 Bft)
01/06/2007 18:00 16,3 C 59 % 1009,2 hPa 0,2 l/m 12,3 km/h (3 Bft) N 0,00 h 0,203 mm 24 W/m 8,1 C 16,3 C 20,4 km/h (4 Bft)
01/06/2007 19:00 15,1 C 60 % 1009,1 hPa 0,2 l/m 16,6 km/h (3 Bft) N-NO 0,00 h 0,076 mm 24 W/m 7,4 C 15,1 C 29,0 km/h (5 Bft)
01/06/2007 20:00 15,2 C 56 % 1009,4 hPa 0,2 l/m 10,9 km/h (2 Bft) O-NO 0,00 h 0,102 mm 10 W/m 6,3 C 15,2 C 16,1 km/h (3 Bft)
01/06/2007 21:00 16,0 C 53 % 1009,6 hPa 0,0 l/m 3,3 km/h (1 Bft) NO 0,00 h 0,076 mm 0 W/m 6,3 C 16,0 C 6,1 km/h (2 Bft)
01/06/2007 22:00 14,8 C 62 % 1010,0 hPa 0,0 l/m 2,1 km/h (1 Bft) N-NE 0,00 h 0,025 mm 0 W/m 7,6 C 14,8 C 4,5 km/h (1 Bft)
01/06/2007 23:00 13,0 C 71 % 1010,3 hPa 0,0 l/m 1,6 km/h (1 Bft) NE 0,00 h 0,051 mm 0 W/m 7,9 C 13,0 C 2,5 km/h (1 Bft)
02/06/2007 00:00 12,7 C 75 % 1010,7 hPa 0,0 l/m 3,4 km/h (1 Bft) NE 0,00 h 0,025 mm 0 W/m 8,3 C 12,7 C 5,4 km/h (1 Bft)
02/06/2007 01:00 12,8 C 77 % 1010,9 hPa 0,2 l/m 3,8 km/h (1 Bft) N 0,00 h 0,025 mm 0 W/m 8,8 C 12,8 C 6,2 km/h (2 Bft)
02/06/2007 02:00 12,9 C 80 % 1010,8 hPa 0,0 l/m 6,0 km/h (2 Bft) O-NO 0,00 h 0,025 mm 0 W/m 9,5 C 12,9 C 9,0 km/h (2 Bft)
02/06/2007 03:00 13,0 C 75 % 1010,8 hPa 0,0 l/m 7,4 km/h (2 Bft) O-NO 0,00 h 0,025 mm 0 W/m 8,6 C 13,0 C 10,3 km/h (2 Bft)
02/06/2007 04:00 13,0 C 73 % 1010,8 hPa 0,0 l/m 7,2 km/h (2 Bft) O-NO 0,00 h 0,051 mm 0 W/m 8,3 C 13,0 C 10,0 km/h (2 Bft)
02/06/2007 05:00 12,2 C 77 % 1011,1 hPa 0,0 l/m 4,1 km/h (1 Bft) NO 0,00 h 0,051 mm 0 W/m 8,2 C 12,2 C 6,5 km/h (2 Bft)
02/06/2007 06:00 12,3 C 78 % 1011,6 hPa 0,0 l/m 1,7 km/h (1 Bft) NO 0,00 h 0,025 mm 18 W/m 8,6 C 12,3 C 3,4 km/h (1 Bft)
02/06/2007 07:00 13,5 C 75 % 1011,7 hPa 0,0 l/m 1,0 km/h (0 Bft) NO 0,32 h 0,025 mm 128 W/m 9,1 C 13,5 C 3,0 km/h (1 Bft)
02/06/2007 08:00 17,2 C 64 % 1011,4 hPa 0,0 l/m 2,3 km/h (1 Bft) E-NE 1,00 h 0,076 mm 372 W/m 10,4 C 17,2 C 4,0 km/h (1 Bft)
02/06/2007 09:00 18,7 C 60 % 1012,1 hPa 0,0 l/m 3,6 km/h (1 Bft) E 1,00 h 0,229 mm 540 W/m 10,8 C 18,7 C 6,0 km/h (2 Bft)
02/06/2007 10:00 19,8 C 54 % 1012,2 hPa 0,0 l/m 5,9 km/h (2 Bft) S 1,00 h 0,330 mm 689 W/m 10,3 C 19,8 C 10,2 km/h (2 Bft)
02/06/2007 11:00 20,4 C 55 % 1012,3 hPa 0,0 l/m 10,6 km/h (2 Bft) S 1,00 h 0,432 mm 808 W/m 11,0 C 20,4 C 17,0 km/h (3 Bft)
02/06/2007 12:00 20,9 C 54 % 1012,2 hPa 0,0 l/m 15,1 km/h (3 Bft) S 1,00 h 0,533 mm 873 W/m 11,2 C 20,9 C 21,3 km/h (4 Bft)
02/06/2007 13:00 21,1 C 49 % 1012,3 hPa 0,0 l/m 15,8 km/h (3 Bft) S-SE 0,80 h 0,610 mm 756 W/m 10,0 C 21,1 C 22,1 km/h (4 Bft)
02/06/2007 14:00 20,0 C 54 % 1012,6 hPa 0,0 l/m 10,0 km/h (2 Bft) S 0,42 h 0,559 mm 453 W/m 10,5 C 20,0 C 15,9 km/h (3 Bft)
02/06/2007 15:00 19,1 C 59 % 1013,0 hPa 0,0 l/m 5,8 km/h (2 Bft) E 0,00 h 0,356 mm 269 W/m 10,9 C 19,1 C 9,7 km/h (2 Bft)
02/06/2007 16:00 18,4 C 63 % 1013,2 hPa 0,0 l/m 4,4 km/h (1 Bft) E 0,00 h 0,203 mm 275 W/m 11,3 C 18,4 C 7,6 km/h (2 Bft)
02/06/2007 17:00 17,6 C 68 % 1013,4 hPa 0,0 l/m 5,0 km/h (1 Bft) E 0,00 h 0,178 mm 133 W/m 11,6 C 17,6 C 9,3 km/h (2 Bft)
02/06/2007 18:00 16,4 C 76 % 1013,9 hPa 0,2 l/m 3,5 km/h (1 Bft) SE 0,00 h 0,102 mm 82 W/m 12,2 C 16,4 C 6,1 km/h (2 Bft)
02/06/2007 19:00 15,6 C 84 % 1013,7 hPa 0,0 l/m 3,0 km/h (1 Bft) O-SO 0,27 h 0,051 mm 116 W/m 13,0 C 15,6 C 5,0 km/h (1 Bft)
02/06/2007 20:00 15,5 C 82 % 1013,6 hPa 0,0 l/m 3,1 km/h (1 Bft) SO 0,00 h 0,076 mm 22 W/m 12,5 C 15,5 C 5,3 km/h (1 Bft)
02/06/2007 21:00 15,2 C 86 % 1014,2 hPa 0,0 l/m 0,0 km/h (0 Bft) N 0,00 h 0,025 mm 0 W/m 12,8 C 15,2 C 0,1 km/h (0 Bft)
02/06/2007 22:00 14,4 C 88 % 1014,9 hPa 0,0 l/m 0,6 km/h (0 Bft) SO 0,00 h 0,000 mm 0 W/m 12,5 C 14,4 C 2,0 km/h (1 Bft)
02/06/2007 23:00 14,0 C 90 % 1015,0 hPa 0,0 l/m 0,8 km/h (0 Bft) NO 0,00 h 0,025 mm 0 W/m 12,4 C 14,0 C 1,9 km/h (1 Bft)
03/06/2007 00:00 13,8 C 91 % 1015,0 hPa 0,0 l/m 3,4 km/h (1 Bft) NO 0,00 h 0,025 mm 0 W/m 12,3 C 13,8 C 5,5 km/h (1 Bft)
03/06/2007 01:00 14,1 C 86 % 1014,9 hPa 0,0 l/m 1,7 km/h (1 Bft) O-NO 0,00 h 0,025 mm 0 W/m 11,8 C 14,1 C 3,2 km/h (1 Bft)
03/06/2007 02:00 14,5 C 79 % 1014,7 hPa 0,0 l/m 3,0 km/h (1 Bft) O-NO 0,00 h 0,025 mm 0 W/m 11,0 C 14,5 C 5,6 km/h (1 Bft)
03/06/2007 03:00 14,6 C 77 % 1014,5 hPa 0,0 l/m 4,8 km/h (1 Bft) O 0,00 h 0,025 mm 0 W/m 10,7 C 14,6 C 7,1 km/h (2 Bft)
03/06/2007 04:00 14,5 C 76 % 1014,6 hPa 0,0 l/m 4,5 km/h (1 Bft) O 0,00 h 0,025 mm 0 W/m 10,4 C 14,5 C 6,3 km/h (2 Bft)
03/06/2007 05:00 14,1 C 75 % 1014,6 hPa 0,0 l/m 5,3 km/h (1 Bft) O-NO 0,00 h 0,025 mm 5 W/m 9,8 C 14,1 C 7,8 km/h (2 Bft)
03/06/2007 06:00 13,6 C 79 % 1014,7 hPa 0,0 l/m 2,0 km/h (1 Bft) O-NO 0,00 h 0,025 mm 25 W/m 10,0 C 13,6 C 3,5 km/h (1 Bft)
03/06/2007 07:00 14,5 C 76 % 1014,8 hPa 0,0 l/m 2,6 km/h (1 Bft) O-NO 0,00 h 0,025 mm 82 W/m 10,2 C 14,5 C 4,7 km/h (1 Bft)
03/06/2007 08:00 15,6 C 71 % 1014,7 hPa 0,0 l/m 1,1 km/h (0 Bft) NO 0,00 h 0,051 mm 159 W/m 10,4 C 15,6 C 2,8 km/h (1 Bft)
03/06/2007 09:00 18,4 C 63 % 1014,7 hPa 0,0 l/m 0,5 km/h (0 Bft) SO 0,53 h 0,102 mm 374 W/m 11,1 C 18,4 C 1,5 km/h (1 Bft)
03/06/2007 10:00 21,5 C 47 % 1014,6 hPa 0,0 l/m 6,8 km/h (2 Bft) O-SO 1,00 h 0,229 mm 663 W/m 9,7 C 21,5 C 10,9 km/h (2 Bft)
03/06/2007 11:00 22,7 C 43 % 1014,5 hPa 0,0 l/m 3,8 km/h (1 Bft) S 0,60 h 0,457 mm 603 W/m 9,3 C 22,7 C 7,0 km/h (2 Bft)
03/06/2007 12:00 24,1 C 43 % 1014,1 hPa 0,0 l/m 5,9 km/h (2 Bft) E 0,73 h 0,406 mm 724 W/m 10,6 C 24,1 C 10,5 km/h (2 Bft)
03/06/2007 13:00 23,8 C 41 % 1013,9 hPa 0,0 l/m 9,8 km/h (2 Bft) S 0,52 h 0,483 mm 668 W/m 9,6 C 23,8 C 16,0 km/h (3 Bft)
03/06/2007 14:00 23,9 C 39 % 1013,9 hPa 0,0 l/m 7,6 km/h (2 Bft) S 0,47 h 0,508 mm 596 W/m 9,1 C 23,9 C 12,9 km/h (3 Bft)
03/06/2007 15:00 23,3 C 41 % 1013,8 hPa 0,0 l/m 7,9 km/h (2 Bft) S-SE 0,40 h 0,483 mm 483 W/m 9,4 C 23,3 C 12,6 km/h (3 Bft)
03/06/2007 16:00 23,7 C 42 % 1013,8 hPa 0,0 l/m 5,2 km/h (1 Bft) S-SE 0,65 h 0,381 mm 498 W/m 10,1 C 23,7 C 10,0 km/h (2 Bft)
03/06/2007 17:00 23,6 C 43 % 1013,7 hPa 0,0 l/m 7,3 km/h (2 Bft) S-SE 0,78 h 0,381 mm 499 W/m 10,3 C 23,6 C 12,1 km/h (2 Bft)
03/06/2007 18:00 22,5 C 46 % 1013,5 hPa 0,0 l/m 5,8 km/h (2 Bft) S 0,47 h 0,381 mm 234 W/m 10,4 C 22,5 C 9,1 km/h (2 Bft)
03/06/2007 19:00 21,9 C 48 % 1013,5 hPa 0,0 l/m 4,8 km/h (1 Bft) SO 0,27 h 0,203 mm 102 W/m 10,3 C 21,9 C 6,9 km/h (2 Bft)
03/06/2007 20:00 20,6 C 53 % 1013,6 hPa 0,0 l/m 4,7 km/h (1 Bft) O 0,07 h 0,102 mm 29 W/m 10,6 C 20,6 C 6,6 km/h (2 Bft)
03/06/2007 21:00 18,8 C 59 % 1013,7 hPa 0,0 l/m 6,7 km/h (2 Bft) O-NO 0,00 h 0,051 mm 6 W/m 10,6 C 18,8 C 8,8 km/h (2 Bft)
03/06/2007 22:00 18,5 C 60 % 1014,1 hPa 0,0 l/m 8,0 km/h (2 Bft) O-NO 0,00 h 0,051 mm 0 W/m 10,7 C 18,5 C 11,2 km/h (2 Bft)
03/06/2007 23:00 17,8 C 63 % 1014,3 hPa 0,0 l/m 4,8 km/h (1 Bft) O 0,00 h 0,076 mm 0 W/m 10,6 C 17,8 C 7,1 km/h (2 Bft)
Min-Date _ 30/05/07 28/05/07 28/05/07 - 28/05/07 - - - - 29/05/07 30/05/07 28/05/07
_ Min-Heure 05:48 12:51 18:15 - 02:11 - - - - 02:31 05:48 03:06
Minimum _ 11,3 C 29 % 991,2 hPa - 0,0 km/h (0 Bft) - - - - -1,4 C 11,3 C 0,0 km/h (0 Bft)
Max-Date _ 03/06/07 31/05/07 02/06/07 01/06/07 28/05/07 - 29/05/07 28/05/07 03/06/07 31/05/07 03/06/07 28/05/07
_ Max-Heure 14:33 21:29 23:30 01:17 13:09 - 08:36 14:00 13:19 14:20 14:33 13:09
Maximum _ 24,9 C 100 % 1015,1 hPa 4,8 l/m 53,1 km/h
O-SO (7 Bft)
- 0,05 h 0,838 mm 1136 W/m 15,0 C 24,9 C 67,6 km/h
O-SO (8 Bft)
Moyenne _ 16,8 C 61 % 1007,1 hPa #11,4 l/m 8,1 km/h (2 Bft) E #57:57 h #35,601 mm 378 W/m 8,6 C 16,8 C 12,2 km/h (2 Bft)
Roquefort les pins